sensor_id;sensor_type;location;lat;lon;timestamp;P1;durP1;ratioP1;P2;durP2;ratioP2
17993;SDS011;9122;48.406;9.984;2022-09-19T00:02:41;1.17;;;0.80;;
17993;SDS011;9122;48.406;9.984;2022-09-19T00:05:26;0.80;;;0.80;;
17993;SDS011;9122;48.406;9.984;2022-09-19T00:08:10;1.03;;;1.03;;
17993;SDS011;9122;48.406;9.984;2022-09-19T00:10:55;0.87;;;0.87;;
17993;SDS011;9122;48.406;9.984;2022-09-19T00:13:39;0.80;;;0.80;;
17993;SDS011;9122;48.406;9.984;2022-09-19T00:16:30;1.10;;;1.00;;
17993;SDS011;9122;48.406;9.984;2022-09-19T00:19:23;1.10;;;0.80;;
17993;SDS011;9122;48.406;9.984;2022-09-19T00:22:11;0.83;;;0.83;;
17993;SDS011;9122;48.406;9.984;2022-09-19T00:24:55;1.37;;;1.27;;
17993;SDS011;9122;48.406;9.984;2022-09-19T00:27:39;0.97;;;0.77;;
17993;SDS011;9122;48.406;9.984;2022-09-19T00:30:23;0.90;;;0.90;;
17993;SDS011;9122;48.406;9.984;2022-09-19T00:33:08;0.90;;;0.90;;
17993;SDS011;9122;48.406;9.984;2022-09-19T00:35:52;1.00;;;1.00;;
17993;SDS011;9122;48.406;9.984;2022-09-19T00:38:38;1.17;;;1.17;;
17993;SDS011;9122;48.406;9.984;2022-09-19T00:41:23;0.73;;;0.73;;
17993;SDS011;9122;48.406;9.984;2022-09-19T00:47:26;0.90;;;0.67;;
17993;SDS011;9122;48.406;9.984;2022-09-19T00:50:21;0.43;;;0.43;;
17993;SDS011;9122;48.406;9.984;2022-09-19T00:53:12;0.30;;;0.30;;
17993;SDS011;9122;48.406;9.984;2022-09-19T00:56:00;1.23;;;0.47;;
17993;SDS011;9122;48.406;9.984;2022-09-19T00:58:45;0.20;;;0.20;;
17993;SDS011;9122;48.406;9.984;2022-09-19T01:01:30;0.30;;;0.20;;
17993;SDS011;9122;48.406;9.984;2022-09-19T01:04:16;0.30;;;0.20;;
17993;SDS011;9122;48.406;9.984;2022-09-19T01:16:05;0.20;;;0.17;;
17993;SDS011;9122;48.406;9.984;2022-09-19T01:18:58;0.27;;;0.27;;
17993;SDS011;9122;48.406;9.984;2022-09-19T01:25:06;0.17;;;0.17;;
17993;SDS011;9122;48.406;9.984;2022-09-19T01:27:56;0.17;;;0.17;;
17993;SDS011;9122;48.406;9.984;2022-09-19T01:30:52;1.30;;;0.27;;
17993;SDS011;9122;48.406;9.984;2022-09-19T01:36:55;0.20;;;0.20;;
17993;SDS011;9122;48.406;9.984;2022-09-19T01:39:48;0.27;;;0.27;;
17993;SDS011;9122;48.406;9.984;2022-09-19T01:42:33;0.23;;;0.10;;
17993;SDS011;9122;48.406;9.984;2022-09-19T01:45:18;0.13;;;0.10;;
17993;SDS011;9122;48.406;9.984;2022-09-19T01:48:05;0.20;;;0.20;;
17993;SDS011;9122;48.406;9.984;2022-09-19T01:51:24;0.20;;;0.20;;
17993;SDS011;9122;48.406;9.984;2022-09-19T01:57:21;0.20;;;0.20;;
17993;SDS011;9122;48.406;9.984;2022-09-19T02:00:28;0.27;;;0.27;;
17993;SDS011;9122;48.406;9.984;2022-09-19T02:03:21;0.20;;;0.20;;
17993;SDS011;9122;48.406;9.984;2022-09-19T02:12:09;1.40;;;0.23;;
17993;SDS011;9122;48.406;9.984;2022-09-19T02:14:58;0.17;;;0.17;;
17993;SDS011;9122;48.406;9.984;2022-09-19T02:17:58;0.33;;;0.30;;
17993;SDS011;9122;48.406;9.984;2022-09-19T02:20:51;0.10;;;0.10;;
17993;SDS011;9122;48.406;9.984;2022-09-19T02:23:42;0.13;;;0.13;;
17993;SDS011;9122;48.406;9.984;2022-09-19T02:26:31;0.10;;;0.10;;
17993;SDS011;9122;48.406;9.984;2022-09-19T02:29:17;0.20;;;0.20;;
17993;SDS011;9122;48.406;9.984;2022-09-19T02:32:07;0.17;;;0.17;;
17993;SDS011;9122;48.406;9.984;2022-09-19T02:34:53;0.10;;;0.10;;
17993;SDS011;9122;48.406;9.984;2022-09-19T02:37:45;0.63;;;0.23;;
17993;SDS011;9122;48.406;9.984;2022-09-19T02:40:33;1.27;;;0.40;;
17993;SDS011;9122;48.406;9.984;2022-09-19T02:43:28;0.53;;;0.30;;
17993;SDS011;9122;48.406;9.984;2022-09-19T02:46:22;0.20;;;0.20;;
17993;SDS011;9122;48.406;9.984;2022-09-19T02:49:16;0.20;;;0.20;;
17993;SDS011;9122;48.406;9.984;2022-09-19T02:52:13;1.50;;;0.17;;
17993;SDS011;9122;48.406;9.984;2022-09-19T02:55:08;0.10;;;0.10;;
17993;SDS011;9122;48.406;9.984;2022-09-19T02:57:58;0.63;;;0.17;;
17993;SDS011;9122;48.406;9.984;2022-09-19T03:00:47;0.40;;;0.40;;
17993;SDS011;9122;48.406;9.984;2022-09-19T03:03:43;0.23;;;0.23;;
17993;SDS011;9122;48.406;9.984;2022-09-19T03:06:53;0.63;;;0.63;;
17993;SDS011;9122;48.406;9.984;2022-09-19T03:10:03;0.53;;;0.33;;
17993;SDS011;9122;48.406;9.984;2022-09-19T03:12:53;0.20;;;0.20;;
17993;SDS011;9122;48.406;9.984;2022-09-19T03:15:46;0.60;;;0.40;;
17993;SDS011;9122;48.406;9.984;2022-09-19T03:18:36;0.70;;;0.40;;
17993;SDS011;9122;48.406;9.984;2022-09-19T03:21:23;2.27;;;0.50;;
17993;SDS011;9122;48.406;9.984;2022-09-19T03:24:09;0.10;;;0.10;;
17993;SDS011;9122;48.406;9.984;2022-09-19T03:26:55;0.40;;;0.30;;
17993;SDS011;9122;48.406;9.984;2022-09-19T03:29:39;0.50;;;0.30;;
17993;SDS011;9122;48.406;9.984;2022-09-19T03:32:24;0.20;;;0.20;;
17993;SDS011;9122;48.406;9.984;2022-09-19T03:35:10;0.30;;;0.27;;
17993;SDS011;9122;48.406;9.984;2022-09-19T03:37:54;0.30;;;0.30;;
17993;SDS011;9122;48.406;9.984;2022-09-19T03:40:39;0.33;;;0.20;;
17993;SDS011;9122;48.406;9.984;2022-09-19T03:43:24;0.30;;;0.30;;
17993;SDS011;9122;48.406;9.984;2022-09-19T03:46:10;0.50;;;0.30;;
17993;SDS011;9122;48.406;9.984;2022-09-19T03:48:56;0.60;;;0.40;;
17993;SDS011;9122;48.406;9.984;2022-09-19T03:51:41;0.20;;;0.20;;
17993;SDS011;9122;48.406;9.984;2022-09-19T03:54:32;2.77;;;0.30;;
17993;SDS011;9122;48.406;9.984;2022-09-19T03:57:17;1.37;;;0.60;;
17993;SDS011;9122;48.406;9.984;2022-09-19T04:00:02;1.30;;;0.50;;
17993;SDS011;9122;48.406;9.984;2022-09-19T04:02:47;0.50;;;0.50;;
17993;SDS011;9122;48.406;9.984;2022-09-19T04:05:34;1.07;;;0.40;;
17993;SDS011;9122;48.406;9.984;2022-09-19T04:08:18;0.67;;;0.30;;
17993;SDS011;9122;48.406;9.984;2022-09-19T04:11:04;1.50;;;0.60;;
17993;SDS011;9122;48.406;9.984;2022-09-19T04:13:48;1.33;;;0.80;;
17993;SDS011;9122;48.406;9.984;2022-09-19T04:16:35;1.83;;;0.80;;
17993;SDS011;9122;48.406;9.984;2022-09-19T04:19:19;1.90;;;0.80;;
17993;SDS011;9122;48.406;9.984;2022-09-19T04:22:04;0.63;;;0.63;;
17993;SDS011;9122;48.406;9.984;2022-09-19T04:24:48;1.17;;;0.60;;
17993;SDS011;9122;48.406;9.984;2022-09-19T04:27:33;0.60;;;0.60;;
17993;SDS011;9122;48.406;9.984;2022-09-19T04:30:17;0.77;;;0.43;;
17993;SDS011;9122;48.406;9.984;2022-09-19T04:33:08;1.83;;;0.80;;
17993;SDS011;9122;48.406;9.984;2022-09-19T04:35:54;0.70;;;0.67;;
17993;SDS011;9122;48.406;9.984;2022-09-19T04:38:43;0.93;;;0.50;;
17993;SDS011;9122;48.406;9.984;2022-09-19T04:41:31;1.73;;;1.00;;
17993;SDS011;9122;48.406;9.984;2022-09-19T04:44:17;1.03;;;1.00;;
17993;SDS011;9122;48.406;9.984;2022-09-19T04:47:02;0.90;;;0.90;;
17993;SDS011;9122;48.406;9.984;2022-09-19T04:49:50;1.73;;;0.90;;
17993;SDS011;9122;48.406;9.984;2022-09-19T04:52:34;0.87;;;0.73;;
17993;SDS011;9122;48.406;9.984;2022-09-19T04:55:18;1.27;;;1.17;;
17993;SDS011;9122;48.406;9.984;2022-09-19T04:58:03;1.23;;;1.10;;
17993;SDS011;9122;48.406;9.984;2022-09-19T05:00:52;2.30;;;0.87;;
17993;SDS011;9122;48.406;9.984;2022-09-19T05:03:39;2.33;;;0.80;;
17993;SDS011;9122;48.406;9.984;2022-09-19T05:06:27;0.80;;;0.80;;
17993;SDS011;9122;48.406;9.984;2022-09-19T05:09:12;0.73;;;0.70;;
17993;SDS011;9122;48.406;9.984;2022-09-19T05:11:57;1.73;;;1.07;;
17993;SDS011;9122;48.406;9.984;2022-09-19T05:14:41;2.30;;;1.10;;
17993;SDS011;9122;48.406;9.984;2022-09-19T05:17:26;1.27;;;1.00;;
17993;SDS011;9122;48.406;9.984;2022-09-19T05:20:11;1.87;;;1.50;;
17993;SDS011;9122;48.406;9.984;2022-09-19T05:22:57;1.17;;;0.83;;
17993;SDS011;9122;48.406;9.984;2022-09-19T05:25:44;3.77;;;1.40;;
17993;SDS011;9122;48.406;9.984;2022-09-19T05:28:29;1.47;;;1.20;;
17993;SDS011;9122;48.406;9.984;2022-09-19T05:31:14;2.83;;;1.37;;
17993;SDS011;9122;48.406;9.984;2022-09-19T05:34:00;1.60;;;1.00;;
17993;SDS011;9122;48.406;9.984;2022-09-19T05:36:45;1.40;;;1.10;;
17993;SDS011;9122;48.406;9.984;2022-09-19T05:39:31;2.67;;;1.20;;
17993;SDS011;9122;48.406;9.984;2022-09-19T05:42:15;2.07;;;1.10;;
17993;SDS011;9122;48.406;9.984;2022-09-19T05:44:59;1.00;;;0.90;;
17993;SDS011;9122;48.406;9.984;2022-09-19T05:47:44;2.50;;;1.13;;
17993;SDS011;9122;48.406;9.984;2022-09-19T05:50:28;2.43;;;0.90;;
17993;SDS011;9122;48.406;9.984;2022-09-19T05:53:13;2.53;;;1.47;;
17993;SDS011;9122;48.406;9.984;2022-09-19T05:56:17;0.83;;;0.80;;
17993;SDS011;9122;48.406;9.984;2022-09-19T05:59:02;1.13;;;0.93;;
17993;SDS011;9122;48.406;9.984;2022-09-19T06:01:47;1.30;;;1.20;;
17993;SDS011;9122;48.406;9.984;2022-09-19T06:04:31;2.03;;;1.03;;
17993;SDS011;9122;48.406;9.984;2022-09-19T06:07:16;2.13;;;1.10;;
17993;SDS011;9122;48.406;9.984;2022-09-19T06:10:00;1.63;;;1.23;;
17993;SDS011;9122;48.406;9.984;2022-09-19T06:12:45;4.10;;;1.43;;
17993;SDS011;9122;48.406;9.984;2022-09-19T06:15:30;4.30;;;1.40;;
17993;SDS011;9122;48.406;9.984;2022-09-19T06:18:14;4.83;;;1.50;;
17993;SDS011;9122;48.406;9.984;2022-09-19T06:20:59;1.73;;;1.37;;
17993;SDS011;9122;48.406;9.984;2022-09-19T06:23:44;4.00;;;1.40;;
17993;SDS011;9122;48.406;9.984;2022-09-19T06:26:28;1.50;;;1.33;;
17993;SDS011;9122;48.406;9.984;2022-09-19T06:29:12;1.27;;;1.03;;
17993;SDS011;9122;48.406;9.984;2022-09-19T06:31:56;2.40;;;1.50;;
17993;SDS011;9122;48.406;9.984;2022-09-19T06:34:44;1.60;;;1.17;;
17993;SDS011;9122;48.406;9.984;2022-09-19T06:37:29;2.20;;;1.10;;
17993;SDS011;9122;48.406;9.984;2022-09-19T06:40:14;1.07;;;1.07;;
17993;SDS011;9122;48.406;9.984;2022-09-19T06:43:01;1.43;;;1.20;;
17993;SDS011;9122;48.406;9.984;2022-09-19T06:45:48;1.60;;;1.30;;
17993;SDS011;9122;48.406;9.984;2022-09-19T06:48:32;1.77;;;1.30;;
17993;SDS011;9122;48.406;9.984;2022-09-19T06:51:19;3.07;;;1.27;;
17993;SDS011;9122;48.406;9.984;2022-09-19T06:54:03;2.13;;;1.00;;
17993;SDS011;9122;48.406;9.984;2022-09-19T06:56:48;1.30;;;0.93;;
17993;SDS011;9122;48.406;9.984;2022-09-19T06:59:33;1.10;;;1.00;;
17993;SDS011;9122;48.406;9.984;2022-09-19T07:02:17;3.23;;;1.10;;
17993;SDS011;9122;48.406;9.984;2022-09-19T07:05:05;1.97;;;1.17;;
17993;SDS011;9122;48.406;9.984;2022-09-19T07:07:50;2.47;;;1.10;;
17993;SDS011;9122;48.406;9.984;2022-09-19T07:10:43;2.30;;;1.13;;
17993;SDS011;9122;48.406;9.984;2022-09-19T07:13:28;2.57;;;1.00;;
17993;SDS011;9122;48.406;9.984;2022-09-19T07:16:12;2.20;;;1.27;;
17993;SDS011;9122;48.406;9.984;2022-09-19T07:18:56;2.77;;;1.27;;
17993;SDS011;9122;48.406;9.984;2022-09-19T07:21:41;1.03;;;1.00;;
17993;SDS011;9122;48.406;9.984;2022-09-19T07:24:26;2.57;;;1.27;;
17993;SDS011;9122;48.406;9.984;2022-09-19T07:27:10;1.87;;;1.10;;
17993;SDS011;9122;48.406;9.984;2022-09-19T07:29:55;2.37;;;1.03;;
17993;SDS011;9122;48.406;9.984;2022-09-19T07:32:42;2.30;;;1.00;;
17993;SDS011;9122;48.406;9.984;2022-09-19T07:35:27;0.97;;;0.93;;
17993;SDS011;9122;48.406;9.984;2022-09-19T07:38:13;2.57;;;0.93;;
17993;SDS011;9122;48.406;9.984;2022-09-19T07:40:59;4.37;;;1.27;;
17993;SDS011;9122;48.406;9.984;2022-09-19T07:43:47;1.70;;;1.20;;
17993;SDS011;9122;48.406;9.984;2022-09-19T07:46:32;1.73;;;1.10;;
17993;SDS011;9122;48.406;9.984;2022-09-19T07:49:16;1.40;;;1.30;;
17993;SDS011;9122;48.406;9.984;2022-09-19T07:52:01;2.13;;;1.43;;
17993;SDS011;9122;48.406;9.984;2022-09-19T07:54:46;2.47;;;1.20;;
17993;SDS011;9122;48.406;9.984;2022-09-19T07:57:30;3.60;;;1.67;;
17993;SDS011;9122;48.406;9.984;2022-09-19T08:00:14;2.57;;;1.53;;
17993;SDS011;9122;48.406;9.984;2022-09-19T08:03:00;4.33;;;1.83;;
17993;SDS011;9122;48.406;9.984;2022-09-19T08:05:47;3.50;;;1.63;;
17993;SDS011;9122;48.406;9.984;2022-09-19T08:08:34;4.73;;;2.03;;
17993;SDS011;9122;48.406;9.984;2022-09-19T08:11:18;3.50;;;1.37;;
17993;SDS011;9122;48.406;9.984;2022-09-19T08:14:06;2.73;;;1.73;;
17993;SDS011;9122;48.406;9.984;2022-09-19T08:16:51;2.33;;;1.80;;
17993;SDS011;9122;48.406;9.984;2022-09-19T08:19:36;2.30;;;1.20;;
17993;SDS011;9122;48.406;9.984;2022-09-19T08:22:22;6.77;;;1.90;;
17993;SDS011;9122;48.406;9.984;2022-09-19T08:25:07;3.63;;;1.50;;
17993;SDS011;9122;48.406;9.984;2022-09-19T08:27:52;3.53;;;1.90;;
17993;SDS011;9122;48.406;9.984;2022-09-19T08:30:36;3.33;;;1.63;;
17993;SDS011;9122;48.406;9.984;2022-09-19T08:33:21;2.53;;;1.20;;
17993;SDS011;9122;48.406;9.984;2022-09-19T08:36:06;2.93;;;1.90;;
17993;SDS011;9122;48.406;9.984;2022-09-19T08:38:51;3.33;;;1.50;;
17993;SDS011;9122;48.406;9.984;2022-09-19T08:47:37;2.60;;;1.57;;
17993;SDS011;9122;48.406;9.984;2022-09-19T08:50:24;1.63;;;1.30;;
17993;SDS011;9122;48.406;9.984;2022-09-19T08:53:13;2.27;;;1.70;;
17993;SDS011;9122;48.406;9.984;2022-09-19T08:56:11;5.43;;;1.77;;
17993;SDS011;9122;48.406;9.984;2022-09-19T08:59:01;3.13;;;1.70;;
17993;SDS011;9122;48.406;9.984;2022-09-19T09:01:50;1.83;;;1.40;;
17993;SDS011;9122;48.406;9.984;2022-09-19T09:04:42;4.43;;;1.63;;
17993;SDS011;9122;48.406;9.984;2022-09-19T09:28:27;3.87;;;1.80;;
17993;SDS011;9122;48.406;9.984;2022-09-19T09:31:27;4.63;;;1.60;;
17993;SDS011;9122;48.406;9.984;2022-09-19T09:37:11;4.73;;;1.73;;
17993;SDS011;9122;48.406;9.984;2022-09-19T09:40:12;2.53;;;2.00;;
17993;SDS011;9122;48.406;9.984;2022-09-19T09:43:24;2.37;;;1.67;;
17993;SDS011;9122;48.406;9.984;2022-09-19T09:46:14;1.80;;;1.70;;
17993;SDS011;9122;48.406;9.984;2022-09-19T09:49:08;3.07;;;1.63;;
17993;SDS011;9122;48.406;9.984;2022-09-19T09:55:07;2.57;;;1.50;;
17993;SDS011;9122;48.406;9.984;2022-09-19T10:01:47;2.43;;;1.47;;
17993;SDS011;9122;48.406;9.984;2022-09-19T10:05:00;1.57;;;1.27;;
17993;SDS011;9122;48.406;9.984;2022-09-19T10:11:08;1.67;;;1.30;;
17993;SDS011;9122;48.406;9.984;2022-09-19T10:13:58;1.13;;;1.07;;
17993;SDS011;9122;48.406;9.984;2022-09-19T10:16:45;1.00;;;0.87;;
17993;SDS011;9122;48.406;9.984;2022-09-19T10:19:36;1.50;;;1.00;;
17993;SDS011;9122;48.406;9.984;2022-09-19T10:22:22;1.00;;;1.00;;
17993;SDS011;9122;48.406;9.984;2022-09-19T10:25:08;1.03;;;1.00;;
17993;SDS011;9122;48.406;9.984;2022-09-19T10:27:55;2.37;;;0.97;;
17993;SDS011;9122;48.406;9.984;2022-09-19T10:30:56;1.43;;;1.13;;
17993;SDS011;9122;48.406;9.984;2022-09-19T10:33:45;2.37;;;0.83;;
17993;SDS011;9122;48.406;9.984;2022-09-19T10:36:31;1.13;;;1.07;;
17993;SDS011;9122;48.406;9.984;2022-09-19T10:39:17;0.70;;;0.70;;
17993;SDS011;9122;48.406;9.984;2022-09-19T10:42:18;2.23;;;0.90;;
17993;SDS011;9122;48.406;9.984;2022-09-19T10:45:36;0.90;;;0.90;;
17993;SDS011;9122;48.406;9.984;2022-09-19T10:48:24;0.90;;;0.90;;
17993;SDS011;9122;48.406;9.984;2022-09-19T10:51:12;1.00;;;1.00;;
17993;SDS011;9122;48.406;9.984;2022-09-19T10:53:57;0.93;;;0.63;;
17993;SDS011;9122;48.406;9.984;2022-09-19T10:56:43;0.70;;;0.70;;
17993;SDS011;9122;48.406;9.984;2022-09-19T10:59:29;1.33;;;0.80;;
17993;SDS011;9122;48.406;9.984;2022-09-19T11:02:22;1.23;;;0.77;;
17993;SDS011;9122;48.406;9.984;2022-09-19T11:05:11;2.70;;;0.70;;
17993;SDS011;9122;48.406;9.984;2022-09-19T11:08:23;0.77;;;0.60;;
17993;SDS011;9122;48.406;9.984;2022-09-19T11:14:07;1.23;;;0.73;;
17993;SDS011;9122;48.406;9.984;2022-09-19T11:17:03;0.87;;;0.87;;
17993;SDS011;9122;48.406;9.984;2022-09-19T11:29:34;0.70;;;0.70;;
17993;SDS011;9122;48.406;9.984;2022-09-19T11:32:31;0.83;;;0.80;;
17993;SDS011;9122;48.406;9.984;2022-09-19T11:35:29;1.00;;;0.90;;
17993;SDS011;9122;48.406;9.984;2022-09-19T11:59:53;1.47;;;1.37;;
17993;SDS011;9122;48.406;9.984;2022-09-19T12:02:48;1.00;;;1.00;;
17993;SDS011;9122;48.406;9.984;2022-09-19T12:11:58;3.10;;;1.67;;
17993;SDS011;9122;48.406;9.984;2022-09-19T12:14:47;2.13;;;1.20;;
17993;SDS011;9122;48.406;9.984;2022-09-19T12:17:36;1.13;;;0.87;;
17993;SDS011;9122;48.406;9.984;2022-09-19T12:20:32;2.13;;;0.87;;
17993;SDS011;9122;48.406;9.984;2022-09-19T12:27:00;0.70;;;0.70;;
17993;SDS011;9122;48.406;9.984;2022-09-19T12:35:46;1.00;;;0.90;;
17993;SDS011;9122;48.406;9.984;2022-09-19T12:38:43;2.13;;;0.93;;
17993;SDS011;9122;48.406;9.984;2022-09-19T12:41:45;1.50;;;0.93;;
17993;SDS011;9122;48.406;9.984;2022-09-19T12:44:59;1.37;;;1.27;;
17993;SDS011;9122;48.406;9.984;2022-09-19T12:50:43;1.30;;;0.63;;
17993;SDS011;9122;48.406;9.984;2022-09-19T12:53:37;0.70;;;0.60;;
17993;SDS011;9122;48.406;9.984;2022-09-19T12:56:31;0.87;;;0.87;;
17993;SDS011;9122;48.406;9.984;2022-09-19T12:59:20;1.80;;;1.00;;
17993;SDS011;9122;48.406;9.984;2022-09-19T13:02:17;2.63;;;0.97;;
17993;SDS011;9122;48.406;9.984;2022-09-19T13:05:41;3.27;;;1.33;;
17993;SDS011;9122;48.406;9.984;2022-09-19T13:08:33;0.97;;;0.77;;
17993;SDS011;9122;48.406;9.984;2022-09-19T13:14:35;1.20;;;0.73;;
17993;SDS011;9122;48.406;9.984;2022-09-19T13:17:25;1.30;;;1.20;;
17993;SDS011;9122;48.406;9.984;2022-09-19T13:20:28;1.17;;;1.03;;
17993;SDS011;9122;48.406;9.984;2022-09-19T13:23:36;1.03;;;0.90;;
17993;SDS011;9122;48.406;9.984;2022-09-19T13:26:46;2.00;;;0.90;;
17993;SDS011;9122;48.406;9.984;2022-09-19T13:32:27;1.93;;;0.83;;
17993;SDS011;9122;48.406;9.984;2022-09-19T13:35:47;1.07;;;0.97;;
17993;SDS011;9122;48.406;9.984;2022-09-19T13:38:40;1.60;;;1.23;;
17993;SDS011;9122;48.406;9.984;2022-09-19T13:41:48;2.60;;;1.10;;
17993;SDS011;9122;48.406;9.984;2022-09-19T13:47:37;1.03;;;0.93;;
17993;SDS011;9122;48.406;9.984;2022-09-19T13:50:41;0.63;;;0.63;;
17993;SDS011;9122;48.406;9.984;2022-09-19T13:53:35;1.30;;;1.00;;
17993;SDS011;9122;48.406;9.984;2022-09-19T13:56:33;1.20;;;1.00;;
17993;SDS011;9122;48.406;9.984;2022-09-19T13:59:24;1.10;;;1.00;;
17993;SDS011;9122;48.406;9.984;2022-09-19T14:04:57;2.10;;;0.83;;
17993;SDS011;9122;48.406;9.984;2022-09-19T14:07:56;1.53;;;0.80;;
17993;SDS011;9122;48.406;9.984;2022-09-19T14:10:46;0.87;;;0.87;;
17993;SDS011;9122;48.406;9.984;2022-09-19T14:13:33;1.73;;;0.97;;
17993;SDS011;9122;48.406;9.984;2022-09-19T14:16:30;0.80;;;0.73;;
17993;SDS011;9122;48.406;9.984;2022-09-19T14:25:25;0.50;;;0.50;;
17993;SDS011;9122;48.406;9.984;2022-09-19T14:31:53;0.40;;;0.40;;
17993;SDS011;9122;48.406;9.984;2022-09-19T14:34:34;0.30;;;0.30;;
17993;SDS011;9122;48.406;9.984;2022-09-19T14:40:58;0.50;;;0.50;;
17993;SDS011;9122;48.406;9.984;2022-09-19T14:44:39;1.07;;;0.70;;
17993;SDS011;9122;48.406;9.984;2022-09-19T14:47:01;0.97;;;0.87;;
17993;SDS011;9122;48.406;9.984;2022-09-19T14:50:19;1.47;;;0.63;;
17993;SDS011;9122;48.406;9.984;2022-09-19T14:53:20;0.70;;;0.70;;
17993;SDS011;9122;48.406;9.984;2022-09-19T14:56:12;0.97;;;0.70;;
17993;SDS011;9122;48.406;9.984;2022-09-19T14:59:01;0.80;;;0.70;;
17993;SDS011;9122;48.406;9.984;2022-09-19T15:01:46;0.93;;;0.77;;
17993;SDS011;9122;48.406;9.984;2022-09-19T15:04:31;1.23;;;0.70;;
17993;SDS011;9122;48.406;9.984;2022-09-19T15:07:17;0.70;;;0.63;;
17993;SDS011;9122;48.406;9.984;2022-09-19T15:13:18;1.07;;;0.80;;
17993;SDS011;9122;48.406;9.984;2022-09-19T15:16:05;1.20;;;0.90;;
17993;SDS011;9122;48.406;9.984;2022-09-19T15:18:56;0.80;;;0.60;;
17993;SDS011;9122;48.406;9.984;2022-09-19T15:21:41;1.93;;;1.20;;
17993;SDS011;9122;48.406;9.984;2022-09-19T15:24:29;0.60;;;0.60;;
17993;SDS011;9122;48.406;9.984;2022-09-19T15:27:13;0.70;;;0.70;;
17993;SDS011;9122;48.406;9.984;2022-09-19T15:33:14;3.00;;;0.97;;
17993;SDS011;9122;48.406;9.984;2022-09-19T15:36:01;0.67;;;0.67;;
17993;SDS011;9122;48.406;9.984;2022-09-19T15:38:47;1.30;;;0.80;;
17993;SDS011;9122;48.406;9.984;2022-09-19T15:41:33;1.00;;;0.57;;
17993;SDS011;9122;48.406;9.984;2022-09-19T15:44:25;0.67;;;0.63;;
17993;SDS011;9122;48.406;9.984;2022-09-19T15:47:12;0.77;;;0.50;;
17993;SDS011;9122;48.406;9.984;2022-09-19T15:50:01;0.63;;;0.57;;
17993;SDS011;9122;48.406;9.984;2022-09-19T15:52:46;0.90;;;0.60;;
17993;SDS011;9122;48.406;9.984;2022-09-19T15:55:32;1.23;;;0.50;;
17993;SDS011;9122;48.406;9.984;2022-09-19T15:58:18;1.07;;;0.60;;
17993;SDS011;9122;48.406;9.984;2022-09-19T16:01:12;0.80;;;0.80;;
17993;SDS011;9122;48.406;9.984;2022-09-19T16:13:01;1.70;;;0.67;;
17993;SDS011;9122;48.406;9.984;2022-09-19T16:15:47;1.00;;;1.00;;
17993;SDS011;9122;48.406;9.984;2022-09-19T16:18:44;0.73;;;0.73;;
17993;SDS011;9122;48.406;9.984;2022-09-19T16:21:33;0.80;;;0.80;;
17993;SDS011;9122;48.406;9.984;2022-09-19T16:24:22;1.20;;;1.10;;
17993;SDS011;9122;48.406;9.984;2022-09-19T16:27:08;1.10;;;1.10;;
17993;SDS011;9122;48.406;9.984;2022-09-19T16:29:54;0.83;;;0.80;;
17993;SDS011;9122;48.406;9.984;2022-09-19T16:32:41;0.70;;;0.70;;
17993;SDS011;9122;48.406;9.984;2022-09-19T16:35:26;0.77;;;0.77;;
17993;SDS011;9122;48.406;9.984;2022-09-19T16:38:17;0.43;;;0.43;;
17993;SDS011;9122;48.406;9.984;2022-09-19T16:41:07;0.70;;;0.70;;
17993;SDS011;9122;48.406;9.984;2022-09-19T16:43:59;0.70;;;0.70;;
17993;SDS011;9122;48.406;9.984;2022-09-19T16:47:23;1.23;;;0.57;;
17993;SDS011;9122;48.406;9.984;2022-09-19T16:50:10;0.47;;;0.47;;
17993;SDS011;9122;48.406;9.984;2022-09-19T16:52:55;0.97;;;0.80;;
17993;SDS011;9122;48.406;9.984;2022-09-19T16:55:40;1.40;;;1.37;;
17993;SDS011;9122;48.406;9.984;2022-09-19T16:58:25;0.60;;;0.60;;
17993;SDS011;9122;48.406;9.984;2022-09-19T17:01:10;0.70;;;0.57;;
17993;SDS011;9122;48.406;9.984;2022-09-19T17:03:54;0.40;;;0.40;;
17993;SDS011;9122;48.406;9.984;2022-09-19T17:06:39;0.73;;;0.73;;
17993;SDS011;9122;48.406;9.984;2022-09-19T17:09:24;0.90;;;0.90;;
17993;SDS011;9122;48.406;9.984;2022-09-19T17:12:08;2.47;;;1.00;;
17993;SDS011;9122;48.406;9.984;2022-09-19T17:14:55;1.03;;;0.97;;
17993;SDS011;9122;48.406;9.984;2022-09-19T17:17:39;1.20;;;1.10;;
17993;SDS011;9122;48.406;9.984;2022-09-19T17:20:24;2.07;;;1.00;;
17993;SDS011;9122;48.406;9.984;2022-09-19T17:23:11;0.83;;;0.83;;
17993;SDS011;9122;48.406;9.984;2022-09-19T17:25:57;1.20;;;0.93;;
17993;SDS011;9122;48.406;9.984;2022-09-19T17:28:43;0.70;;;0.70;;
17993;SDS011;9122;48.406;9.984;2022-09-19T17:31:34;1.50;;;0.70;;
17993;SDS011;9122;48.406;9.984;2022-09-19T17:34:19;0.90;;;0.90;;
17993;SDS011;9122;48.406;9.984;2022-09-19T17:37:03;0.70;;;0.70;;
17993;SDS011;9122;48.406;9.984;2022-09-19T17:39:48;1.17;;;1.07;;
17993;SDS011;9122;48.406;9.984;2022-09-19T17:42:33;1.00;;;1.00;;
17993;SDS011;9122;48.406;9.984;2022-09-19T17:45:17;1.00;;;1.00;;
17993;SDS011;9122;48.406;9.984;2022-09-19T17:48:02;1.67;;;1.57;;
17993;SDS011;9122;48.406;9.984;2022-09-19T17:50:47;3.80;;;3.50;;
17993;SDS011;9122;48.406;9.984;2022-09-19T17:53:31;5.67;;;5.17;;
17993;SDS011;9122;48.406;9.984;2022-09-19T17:56:17;4.10;;;3.80;;
17993;SDS011;9122;48.406;9.984;2022-09-19T17:59:07;2.30;;;2.20;;
17993;SDS011;9122;48.406;9.984;2022-09-19T18:01:52;2.27;;;2.17;;
17993;SDS011;9122;48.406;9.984;2022-09-19T18:04:55;2.77;;;2.57;;
17993;SDS011;9122;48.406;9.984;2022-09-19T18:07:43;4.57;;;4.27;;
17993;SDS011;9122;48.406;9.984;2022-09-19T18:10:28;3.53;;;3.33;;
17993;SDS011;9122;48.406;9.984;2022-09-19T18:13:17;5.60;;;5.20;;
17993;SDS011;9122;48.406;9.984;2022-09-19T18:16:03;3.67;;;2.90;;
17993;SDS011;9122;48.406;9.984;2022-09-19T18:18:49;1.63;;;1.53;;
17993;SDS011;9122;48.406;9.984;2022-09-19T18:21:35;1.60;;;1.50;;
17993;SDS011;9122;48.406;9.984;2022-09-19T18:24:23;1.30;;;1.20;;
17993;SDS011;9122;48.406;9.984;2022-09-19T18:27:13;1.57;;;1.47;;
17993;SDS011;9122;48.406;9.984;2022-09-19T18:29:59;2.70;;;1.97;;
17993;SDS011;9122;48.406;9.984;2022-09-19T18:32:44;1.73;;;1.50;;
17993;SDS011;9122;48.406;9.984;2022-09-19T18:35:31;1.70;;;1.60;;
17993;SDS011;9122;48.406;9.984;2022-09-19T18:38:15;1.93;;;1.80;;
17993;SDS011;9122;48.406;9.984;2022-09-19T18:41:04;2.03;;;1.70;;
17993;SDS011;9122;48.406;9.984;2022-09-19T18:43:55;1.90;;;1.67;;
17993;SDS011;9122;48.406;9.984;2022-09-19T18:46:42;1.67;;;1.57;;
17993;SDS011;9122;48.406;9.984;2022-09-19T18:49:29;1.60;;;1.50;;
17993;SDS011;9122;48.406;9.984;2022-09-19T18:52:13;1.60;;;1.50;;
17993;SDS011;9122;48.406;9.984;2022-09-19T18:54:58;2.03;;;1.93;;
17993;SDS011;9122;48.406;9.984;2022-09-19T18:57:43;1.47;;;1.37;;
17993;SDS011;9122;48.406;9.984;2022-09-19T19:00:27;1.47;;;1.37;;
17993;SDS011;9122;48.406;9.984;2022-09-19T19:03:12;1.30;;;1.20;;
17993;SDS011;9122;48.406;9.984;2022-09-19T19:05:59;1.60;;;1.50;;
17993;SDS011;9122;48.406;9.984;2022-09-19T19:08:45;2.00;;;1.70;;
17993;SDS011;9122;48.406;9.984;2022-09-19T19:11:32;2.43;;;1.30;;
17993;SDS011;9122;48.406;9.984;2022-09-19T19:14:17;1.27;;;1.20;;
17993;SDS011;9122;48.406;9.984;2022-09-19T19:17:02;1.47;;;1.37;;
17993;SDS011;9122;48.406;9.984;2022-09-19T19:19:47;1.40;;;1.30;;
17993;SDS011;9122;48.406;9.984;2022-09-19T19:22:31;2.00;;;1.40;;
17993;SDS011;9122;48.406;9.984;2022-09-19T19:25:15;1.43;;;1.30;;
17993;SDS011;9122;48.406;9.984;2022-09-19T19:27:59;1.40;;;1.30;;
17993;SDS011;9122;48.406;9.984;2022-09-19T19:30:48;3.47;;;3.17;;
17993;SDS011;9122;48.406;9.984;2022-09-19T19:33:37;3.90;;;3.60;;
17993;SDS011;9122;48.406;9.984;2022-09-19T19:36:22;2.00;;;1.90;;
17993;SDS011;9122;48.406;9.984;2022-09-19T19:39:06;2.47;;;2.03;;
17993;SDS011;9122;48.406;9.984;2022-09-19T19:41:52;2.80;;;2.60;;
17993;SDS011;9122;48.406;9.984;2022-09-19T19:44:38;1.87;;;1.77;;
17993;SDS011;9122;48.406;9.984;2022-09-19T19:47:22;2.70;;;2.00;;
17993;SDS011;9122;48.406;9.984;2022-09-19T19:50:07;1.93;;;1.77;;
17993;SDS011;9122;48.406;9.984;2022-09-19T19:52:51;1.67;;;1.57;;
17993;SDS011;9122;48.406;9.984;2022-09-19T19:55:36;1.70;;;1.60;;